createdAt,value
2022-09-26T00:00:47.249Z,100705.88
2022-09-26T00:03:15.079Z,100707.56
2022-09-26T00:05:44.249Z,100699.75
2022-09-26T00:08:12.131Z,100695.28
2022-09-26T00:10:39.786Z,100686.78
2022-09-26T00:13:07.616Z,100681.50
2022-09-26T00:15:35.309Z,100672.56
2022-09-26T00:18:02.932Z,100674.38
2022-09-26T00:20:30.640Z,100671.88
2022-09-26T00:23:00.157Z,100673.78
2022-09-26T00:25:27.847Z,100659.84
2022-09-26T00:27:55.571Z,100659.00
2022-09-26T00:30:23.269Z,100656.22
2022-09-26T00:32:50.959Z,100643.69
2022-09-26T00:35:18.667Z,100647.03
2022-09-26T00:37:46.301Z,100650.34
2022-09-26T00:40:16.302Z,100649.38
2022-09-26T00:42:44.005Z,100636.13
2022-09-26T00:45:11.919Z,100632.78
2022-09-26T00:47:45.506Z,100636.13
2022-09-26T00:50:18.276Z,100617.72
2022-09-26T00:52:49.330Z,100620.50
2022-09-26T00:55:20.550Z,100598.72
2022-09-26T00:57:51.593Z,100605.03
2022-09-26T01:00:19.465Z,100613.81
2022-09-26T01:02:48.069Z,100604.03
2022-09-26T01:05:19.034Z,100597.06
2022-09-26T01:07:47.291Z,100588.13
2022-09-26T01:10:15.529Z,100585.47
2022-09-26T01:12:45.045Z,100585.47
2022-09-26T01:15:13.458Z,100575.16
2022-09-26T01:17:42.993Z,100557.03
2022-09-26T01:20:27.856Z,100561.34
2022-09-26T01:23:18.854Z,100567.91
2022-09-26T01:26:02.599Z,100549.06
2022-09-26T01:28:42.670Z,100549.50
2022-09-26T01:31:18.306Z,100552.16
2022-09-26T01:34:00.044Z,100534.56
2022-09-26T01:36:55.778Z,100532.75
2022-09-26T01:39:37.254Z,100526.31
2022-09-26T01:42:12.433Z,100536.09
2022-09-26T01:44:42.605Z,100530.09
2022-09-26T01:47:14.727Z,100522.31
2022-09-26T01:49:49.271Z,100518.09
2022-09-26T01:52:20.643Z,100510.88
2022-09-26T01:54:52.967Z,100517.88
2022-09-26T01:57:24.721Z,100520.50
2022-09-26T01:59:56.057Z,100524.28
2022-09-26T02:02:27.403Z,100516.31
2022-09-26T02:04:58.802Z,100507.81
2022-09-26T02:07:32.628Z,100508.22
2022-09-26T02:10:03.620Z,100495.94
2022-09-26T02:12:34.025Z,100479.66
2022-09-26T02:15:03.137Z,100481.88
2022-09-26T02:17:35.093Z,100477.28
2022-09-26T02:20:07.350Z,100454.53
2022-09-26T02:22:35.909Z,100465.13
2022-09-26T02:25:04.942Z,100446.56
2022-09-26T02:27:32.754Z,100436.97
2022-09-26T02:30:00.668Z,100440.28
2022-09-26T02:32:30.618Z,100416.34
2022-09-26T02:35:00.328Z,100414.41
2022-09-26T02:37:29.042Z,100408.22
2022-09-26T02:39:57.126Z,100408.22
2022-09-26T02:42:28.546Z,100400.16
2022-09-26T02:45:15.798Z,100395.69
2022-09-26T02:48:12.888Z,100398.19
2022-09-26T02:50:54.810Z,100390.53
2022-09-26T02:53:36.743Z,100384.53
2022-09-26T02:56:09.585Z,100388.16
2022-09-26T02:58:47.582Z,100368.38
2022-09-26T03:01:18.588Z,100377.88
2022-09-26T03:03:51.592Z,100371.75
2022-09-26T03:06:24.694Z,100371.03
2022-09-26T03:08:52.725Z,100370.91
2022-09-26T03:11:23.244Z,100357.78
2022-09-26T03:13:53.990Z,100355.00
2022-09-26T03:16:22.258Z,100348.72
2022-09-26T03:18:53.579Z,100345.38
2022-09-26T03:21:22.938Z,100346.06
2022-09-26T03:23:50.829Z,100338.13
2022-09-26T03:26:22.476Z,100331.84
2022-09-26T03:28:51.743Z,100339.94
2022-09-26T03:31:20.755Z,100335.47
2022-09-26T03:33:48.482Z,100330.19
2022-09-26T03:36:16.492Z,100326.69
2022-09-26T03:38:45.613Z,100320.84
2022-09-26T03:41:13.382Z,100319.19
2022-09-26T03:43:43.911Z,100319.03
2022-09-26T03:46:12.957Z,100306.50
2022-09-26T03:48:41.123Z,100309.97
2022-09-26T03:51:10.133Z,100305.50
2022-09-26T03:53:39.687Z,100300.31
2022-09-26T03:56:10.477Z,100296.31
2022-09-26T03:58:38.838Z,100288.22
2022-09-26T04:01:08.155Z,100286.41
2022-09-26T04:03:36.671Z,100284.44
2022-09-26T04:06:05.062Z,100282.50
2022-09-26T04:08:32.741Z,100278.84
2022-09-26T04:11:04.236Z,100283.84
2022-09-26T04:13:50.514Z,100275.38
2022-09-26T04:16:20.945Z,100269.91
2022-09-26T04:18:48.751Z,100268.94
2022-09-26T04:21:16.681Z,100267.28
2022-09-26T04:23:45.295Z,100256.81
2022-09-26T04:26:20.123Z,100262.97
2022-09-26T04:28:55.323Z,100249.97
2022-09-26T04:31:23.931Z,100250.28
2022-09-26T04:33:52.195Z,100244.59
2022-09-26T04:36:19.886Z,100241.41
2022-09-26T04:38:47.702Z,100233.63
2022-09-26T04:41:16.513Z,100228.50
2022-09-26T04:43:44.615Z,100223.31
2022-09-26T04:46:20.093Z,100221.50
2022-09-26T04:48:50.064Z,100223.19
2022-09-26T04:51:19.103Z,100208.13
2022-09-26T04:53:47.013Z,100201.13
2022-09-26T04:56:16.119Z,100192.34
2022-09-26T04:58:44.908Z,100186.09
2022-09-26T05:01:15.478Z,100185.25
2022-09-26T05:03:43.181Z,100184.72
2022-09-26T05:06:11.901Z,100169.97
2022-09-26T05:08:41.244Z,100171.63
2022-09-26T05:11:10.238Z,100170.94
2022-09-26T05:13:38.899Z,100159.38
2022-09-26T05:16:08.618Z,100159.38
2022-09-26T05:18:39.244Z,100155.31
2022-09-26T05:21:07.667Z,100147.69
2022-09-26T05:23:53.866Z,100148.66
2022-09-26T05:26:23.526Z,100142.66
2022-09-26T05:28:52.999Z,100132.06
2022-09-26T05:31:22.239Z,100128.44
2022-09-26T05:33:51.553Z,100125.78
2022-09-26T05:36:19.466Z,100116.19
2022-09-26T05:38:47.256Z,100119.81
2022-09-26T05:41:14.276Z,100114.84
2022-09-26T05:43:42.059Z,100117.47
2022-09-26T05:46:10.878Z,100111.19
2022-09-26T05:48:39.629Z,100101.59
2022-09-26T05:51:11.048Z,100092.97
2022-09-26T05:53:39.105Z,100099.22
2022-09-26T05:56:07.708Z,100089.34
2022-09-26T05:58:36.802Z,100093.66
2022-09-26T06:01:06.543Z,100088.34
2022-09-26T06:03:35.559Z,100100.28
2022-09-26T06:06:05.269Z,100079.09
2022-09-26T06:08:35.178Z,100084.41
2022-09-26T06:11:03.651Z,100072.16
2022-09-26T06:13:31.637Z,100074.81
2022-09-26T06:16:05.565Z,100070.19
2022-09-26T06:18:33.450Z,100070.19
2022-09-26T06:21:03.574Z,100059.31
2022-09-26T06:23:31.660Z,100054.28
2022-09-26T06:26:01.530Z,100060.56
2022-09-26T06:28:29.400Z,100055.44
2022-09-26T06:30:57.708Z,100054.59
2022-09-26T06:33:27.731Z,100038.88
2022-09-26T06:36:02.460Z,100038.41
2022-09-26T06:38:30.250Z,100036.47
2022-09-26T06:40:58.072Z,100029.50
2022-09-26T06:43:27.144Z,100024.19
2022-09-26T06:45:54.794Z,100024.72
2022-09-26T06:48:24.973Z,100014.94
2022-09-26T06:50:53.037Z,100014.13
2022-09-26T06:53:20.957Z,100004.69
2022-09-26T06:55:48.762Z,99999.66
2022-09-26T06:58:16.504Z,99998.84
2022-09-26T07:00:45.742Z,99989.06
2022-09-26T07:03:15.919Z,99988.25
2022-09-26T07:05:43.753Z,99983.78
2022-09-26T07:08:11.515Z,99970.53
2022-09-26T07:10:39.206Z,99971.03
2022-09-26T07:13:09.431Z,99967.38
2022-09-26T07:15:37.832Z,99969.66
2022-09-26T07:18:07.855Z,99967.16
2022-09-26T07:20:38.026Z,99959.22
2022-09-26T07:23:06.564Z,99959.22
2022-09-26T07:25:34.181Z,99956.56
2022-09-26T07:28:02.595Z,99962.53
2022-09-26T07:30:30.276Z,99959.59
2022-09-26T07:33:00.481Z,99952.31
2022-09-26T07:35:29.608Z,99952.31
2022-09-26T07:37:58.220Z,99953.00
2022-09-26T07:40:25.924Z,99939.75
2022-09-26T07:43:15.283Z,99946.41
2022-09-26T07:45:58.893Z,99931.19
2022-09-26T07:48:44.272Z,99934.34
2022-09-26T07:51:13.398Z,99934.94
2022-09-26T07:53:41.229Z,99947.50
2022-09-26T07:56:11.278Z,99932.44
2022-09-26T07:58:41.113Z,99927.16
2022-09-26T08:01:11.510Z,99926.97
2022-09-26T08:03:39.650Z,99932.94
2022-09-26T08:06:07.725Z,99920.38
2022-09-26T08:08:37.306Z,99920.09
2022-09-26T08:11:05.844Z,99915.44
2022-09-26T08:13:34.071Z,99915.44
2022-09-26T08:16:06.286Z,99917.28
2022-09-26T08:18:34.418Z,99904.84
2022-09-26T08:21:05.652Z,99903.03
2022-09-26T08:23:33.859Z,99894.09
2022-09-26T08:26:06.830Z,99902.03
2022-09-26T08:28:35.150Z,99896.09
2022-09-26T08:31:05.162Z,99889.44
2022-09-26T08:33:35.438Z,99886.94
2022-09-26T08:36:07.869Z,99886.25
2022-09-26T08:38:36.544Z,99879.81
2022-09-26T08:41:14.076Z,99873.69
2022-09-26T08:43:53.201Z,99874.38
2022-09-26T08:46:44.108Z,99879.16
2022-09-26T08:50:00.054Z,99879.69
2022-09-26T08:52:36.518Z,99879.69
2022-09-26T08:55:09.520Z,99884.97
2022-09-26T08:57:41.629Z,99871.38
2022-09-26T09:00:19.948Z,99878.16
2022-09-26T09:02:57.481Z,99878.69
2022-09-26T09:05:28.610Z,99868.09
2022-09-26T09:07:59.243Z,99867.28
2022-09-26T09:10:40.099Z,99868.56
2022-09-26T09:13:16.584Z,99861.28
2022-09-26T09:15:54.249Z,99847.91
2022-09-26T09:18:29.287Z,99850.22
2022-09-26T09:21:01.298Z,99819.56
2022-09-26T09:23:52.216Z,99833.34
2022-09-26T09:29:31.330Z,99814.13
2022-09-26T09:32:01.658Z,99803.00
2022-09-26T09:34:32.719Z,99808.50
2022-09-26T09:37:04.099Z,99797.09
2022-09-26T09:39:34.683Z,99795.63
2022-09-26T09:42:06.000Z,99798.44
2022-09-26T09:44:46.744Z,99790.34
2022-09-26T09:47:15.729Z,99791.16
2022-09-26T09:49:43.945Z,99792.00
2022-09-26T09:52:22.206Z,99779.72
2022-09-26T09:54:59.447Z,99773.91
2022-09-26T09:57:54.497Z,99783.72
2022-09-26T10:00:24.509Z,99775.94
2022-09-26T10:03:00.224Z,99765.34
2022-09-26T10:05:38.994Z,99768.97
2022-09-26T10:08:13.115Z,99753.88
2022-09-26T10:10:44.170Z,99758.88
2022-09-26T10:13:12.113Z,99761.66
2022-09-26T10:15:46.038Z,99752.22
2022-09-26T10:18:25.374Z,99757.19
2022-09-26T10:20:55.287Z,99749.94
2022-09-26T10:23:26.434Z,99747.94
2022-09-26T10:26:00.652Z,99747.78
2022-09-26T10:28:35.838Z,99743.31
2022-09-26T10:31:08.409Z,99741.31
2022-09-26T10:33:38.215Z,99735.06
2022-09-26T10:36:13.206Z,99731.41
2022-09-26T10:39:10.551Z,99724.13
2022-09-26T10:41:42.493Z,99731.09
2022-09-26T10:44:23.457Z,99734.72
2022-09-26T10:47:17.759Z,99729.25
2022-09-26T10:49:51.053Z,99718.84
2022-09-26T10:52:23.688Z,99715.19
2022-09-26T10:54:57.965Z,99704.94
2022-09-26T10:57:29.472Z,99700.75
2022-09-26T10:59:59.090Z,99711.53
2022-09-26T11:02:28.970Z,99702.59
2022-09-26T11:05:17.112Z,99697.31
2022-09-26T11:07:47.393Z,99695.34
2022-09-26T11:10:17.767Z,99697.31
2022-09-26T11:13:03.812Z,99693.34
2022-09-26T11:15:31.820Z,99682.75
2022-09-26T11:18:01.409Z,99689.69
2022-09-26T11:20:36.905Z,99686.06
2022-09-26T11:23:11.376Z,99674.31
2022-09-26T11:25:50.107Z,99682.09
2022-09-26T11:28:23.770Z,99675.97
2022-09-26T11:30:55.520Z,99667.50
2022-09-26T11:33:25.401Z,99660.91
2022-09-26T11:36:03.826Z,99661.91
2022-09-26T11:38:39.146Z,99645.66
2022-09-26T11:41:36.745Z,99657.56
2022-09-26T11:44:29.993Z,99653.78
2022-09-26T11:47:09.143Z,99649.47
2022-09-26T11:50:06.260Z,99641.66
2022-09-26T11:52:45.590Z,99651.97
2022-09-26T11:55:24.120Z,99639.72
2022-09-26T11:58:03.544Z,99635.22
2022-09-26T12:00:38.426Z,99634.41
2022-09-26T12:03:38.918Z,99637.72
2022-09-26T12:06:18.109Z,99630.75
2022-09-26T12:09:13.581Z,99635.06
2022-09-26T12:11:47.943Z,99626.13
2022-09-26T12:14:29.594Z,99615.84
2022-09-26T12:17:02.832Z,99617.81
2022-09-26T12:19:35.847Z,99617.81
2022-09-26T12:22:27.173Z,99606.09
2022-09-26T12:25:03.302Z,99605.09
2022-09-26T12:27:36.169Z,99602.25
2022-09-26T12:30:07.429Z,99600.63
2022-09-26T12:32:55.532Z,99602.44
2022-09-26T12:35:35.903Z,99600.63
2022-09-26T12:38:24.451Z,99586.38
2022-09-26T12:40:58.495Z,99587.84
2022-09-26T12:43:42.201Z,99589.03
2022-09-26T12:46:19.008Z,99577.13
2022-09-26T12:48:59.121Z,99583.72
2022-09-26T12:51:36.442Z,99576.94
2022-09-26T12:54:33.235Z,99587.38
2022-09-26T13:01:06.516Z,99575.78
2022-09-26T13:03:56.663Z,99568.47
2022-09-26T13:07:07.680Z,99580.59
2022-09-26T13:09:45.549Z,99563.88
2022-09-26T13:12:21.114Z,99558.56
2022-09-26T13:15:08.448Z,99558.56
2022-09-26T13:17:41.368Z,99558.56
2022-09-26T13:20:15.945Z,99556.41
2022-09-26T13:22:47.270Z,99558.22
2022-09-26T13:25:19.618Z,99557.56
2022-09-26T13:27:54.561Z,99558.56
2022-09-26T13:30:26.298Z,99547.13
2022-09-26T13:33:00.752Z,99547.13
2022-09-26T13:35:29.916Z,99531.25
2022-09-26T13:38:14.226Z,99547.97
2022-09-26T13:40:49.445Z,99544.16
2022-09-26T13:43:26.017Z,99551.09
2022-09-26T13:46:00.066Z,99534.38
2022-09-26T13:48:38.729Z,99524.13
2022-09-26T13:51:12.092Z,99526.78
2022-09-26T13:53:44.814Z,99524.13
2022-09-26T13:56:44.574Z,99515.19
2022-09-26T13:59:26.160Z,99513.19
2022-09-26T14:02:16.783Z,99521.78
2022-09-26T14:04:46.390Z,99508.88
2022-09-26T14:07:33.301Z,99506.91
2022-09-26T14:10:26.299Z,99508.88
2022-09-26T14:13:08.415Z,99505.41
2022-09-26T14:15:58.279Z,99497.28
2022-09-26T14:18:50.352Z,99503.25
2022-09-26T14:21:37.121Z,99492.00
2022-09-26T14:24:28.125Z,99486.34
2022-09-26T14:27:05.046Z,99480.03
2022-09-26T14:29:38.019Z,99485.03
2022-09-26T14:32:14.961Z,99482.69
2022-09-26T14:34:43.679Z,99479.91
2022-09-26T14:37:33.308Z,99475.44
2022-09-26T14:40:23.309Z,99468.13
2022-09-26T14:42:53.958Z,99466.13
2022-09-26T14:45:24.925Z,99466.13
2022-09-26T14:48:01.616Z,99459.19
2022-09-26T14:50:32.191Z,99461.19
2022-09-26T14:53:03.897Z,99455.88
2022-09-26T14:55:32.221Z,99453.41
2022-09-26T14:58:18.461Z,99452.56
2022-09-26T15:00:47.824Z,99433.69
2022-09-26T15:03:17.708Z,99446.44
2022-09-26T15:05:46.152Z,99432.22
2022-09-26T15:08:25.390Z,99429.56
2022-09-26T15:10:54.395Z,99429.38
2022-09-26T15:13:26.489Z,99421.94
2022-09-26T15:15:59.776Z,99421.59
2022-09-26T15:18:39.044Z,99424.09
2022-09-26T15:21:26.403Z,99418.44
2022-09-26T15:23:56.837Z,99411.47
2022-09-26T15:26:26.507Z,99407.34
2022-09-26T15:28:56.526Z,99411.84
2022-09-26T15:31:29.530Z,99402.88
2022-09-26T15:34:01.388Z,99393.94
2022-09-26T15:36:30.595Z,99387.81
2022-09-26T15:38:59.919Z,99388.63
2022-09-26T15:41:45.601Z,99390.09
2022-09-26T15:44:20.513Z,99391.75
2022-09-26T15:46:50.260Z,99386.31
2022-09-26T15:49:22.358Z,99384.31
2022-09-26T15:51:54.161Z,99381.47
2022-09-26T15:54:27.217Z,99373.06
2022-09-26T15:56:57.017Z,99378.31
2022-09-26T15:59:27.531Z,99380.16
2022-09-26T16:01:55.516Z,99380.31
2022-09-26T16:04:27.107Z,99383.94
2022-09-26T16:06:58.436Z,99384.94
2022-09-26T16:09:32.334Z,99384.94
2022-09-26T16:12:01.274Z,99376.00
2022-09-26T16:14:39.249Z,99381.97
2022-09-26T16:17:20.251Z,99373.34
2022-09-26T16:19:50.020Z,99373.19
2022-09-26T16:22:45.302Z,99366.09
2022-09-26T16:25:29.468Z,99369.84
2022-09-26T16:28:03.552Z,99369.53
2022-09-26T16:30:39.246Z,99368.69
2022-09-26T16:33:31.595Z,99368.00
2022-09-26T16:36:15.102Z,99367.19
2022-09-26T16:38:42.946Z,99364.06
2022-09-26T16:41:48.844Z,99358.78
2022-09-26T16:44:26.186Z,99365.38
2022-09-26T16:46:58.742Z,99362.38
2022-09-26T16:49:39.796Z,99356.91
2022-09-26T16:52:22.522Z,99357.72
2022-09-26T16:54:50.284Z,99348.78
2022-09-26T16:57:21.512Z,99351.44
2022-09-26T16:59:49.575Z,99353.25
2022-09-26T17:02:17.039Z,99353.44
2022-09-26T17:04:44.827Z,99347.94
2022-09-26T17:07:15.139Z,99348.78
2022-09-26T17:09:44.302Z,99341.84
2022-09-26T17:12:19.579Z,99341.47
2022-09-26T17:14:49.118Z,99343.16
2022-09-26T17:17:21.683Z,99337.03
2022-09-26T17:19:55.516Z,99340.13
2022-09-26T17:22:26.626Z,99336.47
2022-09-26T17:24:54.635Z,99337.50
2022-09-26T17:27:26.918Z,99337.50
2022-09-26T17:29:58.170Z,99318.78
2022-09-26T17:32:29.482Z,99338.31
2022-09-26T17:34:59.075Z,99337.94
2022-09-26T17:37:27.335Z,99335.47
2022-09-26T17:39:55.262Z,99325.25
2022-09-26T17:42:25.176Z,99336.31
2022-09-26T17:44:52.963Z,99326.53
2022-09-26T17:47:20.806Z,99323.06
2022-09-26T17:49:50.663Z,99317.59
2022-09-26T17:52:25.231Z,99316.75
2022-09-26T17:54:57.373Z,99321.91
2022-09-26T17:57:28.833Z,99316.59
2022-09-26T17:59:56.809Z,99313.13
2022-09-26T18:02:33.215Z,99308.66
2022-09-26T18:05:04.416Z,99307.63
2022-09-26T18:07:35.285Z,99303.97
2022-09-26T18:10:05.636Z,99309.47
2022-09-26T18:12:35.677Z,99307.00
2022-09-26T18:15:04.510Z,99324.00
2022-09-26T18:17:32.426Z,99327.47
2022-09-26T18:20:00.088Z,99318.88
2022-09-26T18:22:31.059Z,99315.59
2022-09-26T18:25:04.621Z,99299.31
2022-09-26T18:27:36.617Z,99292.38
2022-09-26T18:30:05.319Z,99295.66
2022-09-26T18:32:36.096Z,99301.63
2022-09-26T18:35:03.903Z,99305.63
2022-09-26T18:37:31.610Z,99308.78
2022-09-26T18:40:03.814Z,99311.44
2022-09-26T18:42:32.976Z,99308.78
2022-09-26T18:45:04.910Z,99309.59
2022-09-26T18:47:36.572Z,99296.84
2022-09-26T18:50:05.085Z,99310.41
2022-09-26T18:52:32.733Z,99299.81
2022-09-26T18:55:23.441Z,99297.16
2022-09-26T18:58:08.754Z,99305.94
2022-09-26T19:00:37.918Z,99299.81
2022-09-26T19:03:05.673Z,99299.00
2022-09-26T19:05:33.365Z,99294.66
2022-09-26T19:08:06.389Z,99293.88
2022-09-26T19:10:34.300Z,99302.50
2022-09-26T19:13:02.646Z,99296.38
2022-09-26T19:15:30.848Z,99294.72
2022-09-26T19:17:59.992Z,99304.16
2022-09-26T19:20:27.749Z,99291.91
2022-09-26T19:22:58.378Z,99293.88
2022-09-26T19:25:26.291Z,99299.03
2022-09-26T19:27:54.020Z,99289.41
2022-09-26T19:30:22.672Z,99295.38
2022-09-26T19:32:52.306Z,99301.69
2022-09-26T19:35:24.894Z,99287.75
2022-09-26T19:37:52.812Z,99300.00
2022-09-26T19:40:22.337Z,99293.06
2022-09-26T19:42:50.393Z,99291.41
2022-09-26T19:45:19.263Z,99301.19
2022-09-26T19:47:48.151Z,99297.91
2022-09-26T19:50:17.770Z,99298.41
2022-09-26T19:52:47.134Z,99307.69
2022-09-26T19:55:15.937Z,99313.00
2022-09-26T19:57:43.692Z,99310.66
2022-09-26T20:00:12.933Z,99306.38
2022-09-26T20:02:40.995Z,99301.88
2022-09-26T20:05:15.994Z,99296.47
2022-09-26T20:07:44.500Z,99305.41
2022-09-26T20:10:17.091Z,99297.47
2022-09-26T20:12:44.927Z,99311.72
2022-09-26T20:15:13.414Z,99303.44
2022-09-26T20:17:43.130Z,99301.56
2022-09-26T20:20:12.845Z,99309.81
2022-09-26T20:22:42.441Z,99313.00
2022-09-26T20:25:17.033Z,99300.94
2022-09-26T20:27:44.912Z,99317.50
2022-09-26T20:30:32.958Z,99306.31
2022-09-26T20:33:00.971Z,99305.28
2022-09-26T20:35:34.487Z,99296.38
2022-09-26T20:38:06.061Z,99279.50
2022-09-26T20:40:35.924Z,99293.22
2022-09-26T20:43:06.719Z,99290.59
2022-09-26T20:45:39.304Z,99291.72
2022-09-26T20:48:08.709Z,99286.91
2022-09-26T20:50:39.160Z,99284.09
2022-09-26T20:53:10.719Z,99285.59
2022-09-26T20:55:43.976Z,99287.06
2022-09-26T20:58:12.102Z,99280.09
2022-09-26T21:00:39.905Z,99285.06
2022-09-26T21:03:08.289Z,99285.69
2022-09-26T21:05:36.391Z,99283.06
2022-09-26T21:08:07.419Z,99283.41
2022-09-26T21:10:35.283Z,99283.91
2022-09-26T21:13:04.384Z,99285.69
2022-09-26T21:15:33.427Z,99284.72
2022-09-26T21:20:15.127Z,99285.41
2022-09-26T21:22:42.867Z,99291.00
2022-09-26T21:25:16.006Z,99286.69
2022-09-26T21:27:43.670Z,99283.59
2022-09-26T21:30:15.467Z,99289.38
2022-09-26T21:32:45.913Z,99295.84
2022-09-26T21:35:16.830Z,99290.91
2022-09-26T21:37:45.880Z,99297.34
2022-09-26T21:40:13.892Z,99286.44
2022-09-26T21:42:43.200Z,99292.69
2022-09-26T21:45:12.927Z,99289.75
2022-09-26T21:47:40.652Z,99294.06
2022-09-26T21:50:09.562Z,99299.03
2022-09-26T21:52:41.048Z,99300.19
2022-09-26T21:55:11.995Z,99296.53
2022-09-26T21:57:41.974Z,99298.72
2022-09-26T22:00:11.451Z,99298.53
2022-09-26T22:02:41.437Z,99303.34
2022-09-26T22:05:09.866Z,99305.34
2022-09-26T22:07:39.217Z,99306.16
2022-09-26T22:10:08.659Z,99306.50
2022-09-26T22:12:36.408Z,99299.06
2022-09-26T22:15:04.434Z,99300.69
2022-09-26T22:17:34.033Z,99307.16
2022-09-26T22:20:01.859Z,99301.38
2022-09-26T22:22:29.582Z,99301.22
2022-09-26T22:25:03.229Z,99296.06
2022-09-26T22:27:31.253Z,99303.38
2022-09-26T22:29:58.837Z,99293.97
2022-09-26T22:32:26.652Z,99295.44
2022-09-26T22:34:54.304Z,99297.25
2022-09-26T22:37:21.939Z,99293.78
2022-09-26T22:39:49.579Z,99294.78
2022-09-26T22:42:18.587Z,99294.78
2022-09-26T22:44:46.205Z,99296.78
2022-09-26T22:47:13.865Z,99297.78
2022-09-26T22:49:41.582Z,99288.50
2022-09-26T22:52:09.148Z,99294.63
2022-09-26T22:54:36.786Z,99291.50
2022-09-26T22:57:04.453Z,99293.31
2022-09-26T22:59:33.490Z,99294.28
2022-09-26T23:02:01.231Z,99293.31
2022-09-26T23:04:46.776Z,99300.25
2022-09-26T23:07:15.104Z,99299.44
2022-09-26T23:09:42.687Z,99294.78
2022-09-26T23:12:10.776Z,99294.97
2022-09-26T23:14:39.863Z,99294.13
2022-09-26T23:17:07.608Z,99293.63
2022-09-26T23:19:35.322Z,99285.88
2022-09-26T23:22:03.052Z,99293.28
2022-09-26T23:24:30.679Z,99294.13
2022-09-26T23:26:58.761Z,99290.50
2022-09-26T23:29:26.445Z,99290.66
2022-09-26T23:31:55.417Z,99296.94
2022-09-26T23:34:23.437Z,99291.66
2022-09-26T23:36:51.069Z,99299.09
2022-09-26T23:39:18.734Z,99297.13
2022-09-26T23:41:46.336Z,99289.69
2022-09-26T23:44:13.937Z,99288.84
2022-09-26T23:46:41.671Z,99291.47
2022-09-26T23:49:10.783Z,99285.53
2022-09-26T23:51:38.422Z,99287.19
2022-09-26T23:54:06.357Z,99293.31
2022-09-26T23:56:33.956Z,99294.13
2022-09-26T23:59:01.622Z,99293.31
